Time;durP1;ratioP1;P1;durP2;ratioP2;P2;SDS_P1;SDS_P2;PMS_P1;PMS_P2;Temp;Humidity;BMP_temperature;BMP_pressure;BME280_temperature;BME280_humidity;BME280_pressure;Samples;Min_cycle;Max_cycle;Signal;HPM_P1;HPM_P2
2021/11/22 00:01:56;;;;;;;10.98;5.97;;;;;;;9.81;68.86;98939.27;1698804;82;21036;-85
2021/11/22 00:04:24;;;;;;;6.28;5.67;;;;;;;9.81;68.86;98925.83;1732653;82;21489;-80
2021/11/22 00:06:51;;;;;;;7.40;6.67;;;;;;;9.82;68.90;98929.33;1639466;85;21179;-80
2021/11/22 00:09:19;;;;;;;6.87;5.62;;;;;;;9.81;68.90;98926.36;1643125;84;21502;-79
2021/11/22 00:11:45;;;;;;;7.75;6.53;;;;;;;9.82;68.94;98936.86;1673655;85;21125;-71
2021/11/22 00:14:13;;;;;;;7.33;6.62;;;;;;;9.82;68.93;98940.88;1673916;85;21024;-73
2021/11/22 00:16:40;;;;;;;6.72;6.03;;;;;;;9.81;68.99;98954.03;1673574;85;21907;-73
2021/11/22 00:19:08;;;;;;;8.50;6.50;;;;;;;9.80;69.00;98934.95;1674462;85;20998;-75
2021/11/22 00:21:34;;;;;;;6.00;5.37;;;;;;;9.81;69.06;98949.19;1674780;84;21500;-74
2021/11/22 00:24:04;;;;;;;7.47;6.72;;;;;;;9.81;69.10;98947.31;1681274;85;20974;-73
2021/11/22 00:26:33;;;;;;;7.10;6.40;;;;;;;9.79;69.13;98956.16;1656340;85;21049;-74
2021/11/22 00:29:03;;;;;;;8.10;6.17;;;;;;;9.81;69.18;98955.91;1702227;83;21014;-73
2021/11/22 00:31:44;;;;;;;8.18;6.85;;;;;;;9.82;69.13;98962.36;1722062;82;21015;-73
2021/11/22 00:34:12;;;;;;;8.00;7.20;;;;;;;9.83;69.14;98961.83;1696327;84;21002;-74
2021/11/22 00:36:47;;;;;;;8.53;7.50;;;;;;;9.82;69.14;98949.47;1702082;84;21019;-81
2021/11/22 00:39:13;;;;;;;9.50;6.97;;;;;;;9.81;69.22;98965.30;1675900;84;21528;-85
2021/11/22 00:41:39;;;;;;;8.28;6.62;;;;;;;9.81;69.27;98951.88;1672417;84;21219;-85
2021/11/22 00:44:06;;;;;;;7.55;6.35;;;;;;;9.80;69.36;98959.66;1699367;84;21015;-78
2021/11/22 00:46:32;;;;;;;10.45;7.70;;;;;;;9.78;69.40;98961.28;1698863;84;21031;-86
2021/11/22 00:48:59;;;;;;;7.87;6.78;;;;;;;9.76;69.48;98962.06;1698882;84;21063;-75
2021/11/22 00:51:25;;;;;;;7.03;6.30;;;;;;;9.75;69.59;98971.72;1719004;83;21031;-76
2021/11/22 00:53:53;;;;;;;10.15;7.28;;;;;;;9.72;69.70;98981.65;1729356;82;21043;-75
2021/11/22 00:56:21;;;;;;;8.53;7.62;;;;;;;9.71;69.78;98979.49;1729042;83;21532;-72
2021/11/22 00:58:48;;;;;;;8.93;7.42;;;;;;;9.71;69.86;98980.02;1729304;83;21046;-72
2021/11/22 01:01:14;;;;;;;9.80;7.67;;;;;;;9.69;69.96;98974.91;1729064;82;20999;-75
2021/11/22 01:03:42;;;;;;;9.13;6.45;;;;;;;9.68;70.08;98976.53;1708011;82;21026;-81
2021/11/22 01:06:09;;;;;;;7.22;6.53;;;;;;;9.68;70.15;98985.40;1718764;82;21206;-77
2021/11/22 01:08:36;;;;;;;7.70;6.50;;;;;;;9.70;70.20;98997.20;1679066;82;21199;-79
2021/11/22 01:11:03;;;;;;;8.30;7.35;;;;;;;9.71;70.17;98995.61;1726849;82;21515;-81
2021/11/22 01:13:31;;;;;;;7.67;6.92;;;;;;;9.72;70.16;98985.14;1733300;82;20999;-78
2021/11/22 01:15:57;;;;;;;10.03;7.08;;;;;;;9.72;70.18;98990.52;1709172;82;21046;-85
2021/11/22 01:18:23;;;;;;;8.85;7.87;;;;;;;9.71;70.24;98987.55;1708503;82;21899;-80
2021/11/22 01:20:50;;;;;;;7.95;6.60;;;;;;;9.71;70.30;98978.68;1723411;82;20955;-73
2021/11/22 01:23:16;;;;;;;7.75;6.70;;;;;;;9.72;70.38;98988.36;1720814;82;21526;-73
2021/11/22 01:25:44;;;;;;;8.43;6.97;;;;;;;9.70;70.44;98977.06;1686649;84;20990;-77
2021/11/22 01:28:11;;;;;;;8.40;7.60;;;;;;;9.70;70.53;98979.75;1708257;82;21027;-77
2021/11/22 01:30:39;;;;;;;7.60;6.85;;;;;;;9.68;70.61;98981.91;1687750;83;21345;-78
2021/11/22 01:33:05;;;;;;;10.25;7.55;;;;;;;9.66;70.74;98992.89;1698018;84;21043;-77
2021/11/22 01:35:32;;;;;;;9.83;8.15;;;;;;;9.62;70.81;98981.88;1698316;84;20970;-79
2021/11/22 01:37:58;;;;;;;9.75;7.50;;;;;;;9.60;71.02;98988.55;1698133;84;21537;-76
2021/11/22 01:40:25;;;;;;;8.48;7.55;;;;;;;9.59;71.15;98995.02;1695200;83;21067;-74
2021/11/22 01:42:54;;;;;;;8.65;6.33;;;;;;;9.60;71.21;98993.92;1727727;82;21042;-74
2021/11/22 01:45:22;;;;;;;7.95;7.08;;;;;;;9.60;71.24;98991.23;1713006;82;20990;-76
2021/11/22 01:47:49;;;;;;;9.35;8.38;;;;;;;9.61;71.26;98988.84;1722262;83;20960;-77
2021/11/22 01:50:19;;;;;;;9.35;8.35;;;;;;;9.62;71.24;98995.30;1696003;82;21546;-76
2021/11/22 01:52:46;;;;;;;8.70;7.90;;;;;;;9.61;71.26;98995.55;1729097;83;21054;-76
2021/11/22 01:55:15;;;;;;;8.73;7.83;;;;;;;9.60;71.36;98991.23;1729505;82;21127;-75
2021/11/22 01:57:43;;;;;;;8.45;7.35;;;;;;;9.56;71.48;98990.96;1694105;83;21521;-76
2021/11/22 02:00:23;;;;;;;9.38;7.72;;;;;;;9.52;71.67;98998.45;1684143;82;21022;-76
2021/11/22 02:02:51;;;;;;;8.50;7.17;;;;;;;9.50;71.83;99009.97;1700678;84;21619;-77
2021/11/22 02:05:17;;;;;;;10.18;7.80;;;;;;;9.45;72.01;98998.67;1676408;83;21011;-81
2021/11/22 02:07:43;;;;;;;8.00;6.65;;;;;;;9.45;72.14;98996.52;1707667;82;21190;-81
2021/11/22 02:10:10;;;;;;;6.87;5.80;;;;;;;9.44;72.25;98996.27;1702189;84;21488;-80
2021/11/22 02:12:37;;;;;;;8.58;7.45;;;;;;;9.46;72.32;99004.31;1674093;84;21053;-83
2021/11/22 02:15:05;;;;;;;9.33;7.83;;;;;;;9.48;72.32;99004.07;1700293;84;21073;-84
2021/11/22 02:17:33;;;;;;;8.90;8.03;;;;;;;9.51;72.26;99001.67;1719794;83;21044;-84
2021/11/22 02:20:03;;;;;;;9.85;7.80;;;;;;;9.51;72.24;99008.91;1696096;83;21061;-79
2021/11/22 02:22:31;;;;;;;13.32;6.65;;;;;;;9.49;72.28;99016.42;1717151;83;21079;-82
2021/11/22 02:24:58;;;;;;;10.55;7.95;;;;;;;9.48;72.29;99012.94;1693022;83;21042;-83
2021/11/22 02:27:25;;;;;;;9.30;7.58;;;;;;;9.46;72.36;99007.00;1693113;83;21034;-83
2021/11/22 02:29:51;;;;;;;9.03;7.90;;;;;;;9.44;72.40;99009.16;1689453;83;21055;-83
2021/11/22 02:32:17;;;;;;;8.45;7.65;;;;;;;9.40;72.59;99005.91;1689242;84;22202;-81
2021/11/22 02:34:44;;;;;;;9.85;7.85;;;;;;;9.36;72.77;99010.14;1661866;85;20979;-80
2021/11/22 02:37:11;;;;;;;8.20;7.25;;;;;;;9.33;72.86;99013.36;1678300;85;21003;-82
2021/11/22 02:39:38;;;;;;;8.43;7.35;;;;;;;9.28;73.16;99016.00;1697463;83;21071;-79
2021/11/22 02:42:13;;;;;;;8.75;7.12;;;;;;;9.25;73.34;99023.24;1716755;83;21059;-81
2021/11/22 02:44:40;;;;;;;9.23;8.08;;;;;;;9.22;73.58;99025.89;1680827;84;21812;-80
2021/11/22 02:47:07;;;;;;;8.28;7.22;;;;;;;9.22;73.72;99022.39;1661118;83;21068;-86
2021/11/22 02:49:34;;;;;;;8.80;7.90;;;;;;;9.19;73.87;99030.44;1669361;85;21532;-81
2021/11/22 02:52:00;;;;;;;8.70;7.80;;;;;;;9.17;74.07;99028.53;1663030;86;21066;-82
2021/11/22 02:54:27;;;;;;;8.75;7.47;;;;;;;9.14;74.17;99029.05;1659421;84;21067;-82
2021/11/22 02:56:53;;;;;;;9.88;7.87;;;;;;;9.13;74.24;99029.58;1693303;84;21065;-84
2021/11/22 02:59:20;;;;;;;9.43;7.97;;;;;;;9.12;74.34;99027.95;1693992;83;20952;-82
2021/11/22 03:01:46;;;;;;;12.47;8.75;;;;;;;9.11;74.48;99041.65;1687133;83;21118;-81
2021/11/22 03:04:13;;;;;;;9.45;7.67;;;;;;;9.10;74.65;99042.70;1669090;84;21063;-82
2021/11/22 03:06:39;;;;;;;9.48;8.13;;;;;;;9.10;74.78;99042.18;1694864;84;21040;-83
2021/11/22 03:09:05;;;;;;;10.75;8.33;;;;;;;9.10;74.86;99050.23;1698945;83;22146;-82
2021/11/22 03:11:32;;;;;;;9.73;7.87;;;;;;;9.11;74.87;99041.65;1723693;82;20988;-79
2021/11/22 03:13:58;;;;;;;10.98;8.58;;;;;;;9.11;74.86;99048.36;1695252;83;21559;-79
2021/11/22 03:16:29;;;;;;;8.48;7.62;;;;;;;9.10;74.88;99061.48;1710289;83;20995;-76
2021/11/22 03:18:54;;;;;;;10.32;8.75;;;;;;;9.09;74.95;99067.38;1689150;83;21058;-80
2021/11/22 03:21:23;;;;;;;11.57;8.20;;;;;;;9.06;75.11;99063.06;1684826;84;21170;-83
2021/11/22 03:23:51;;;;;;;8.80;7.90;;;;;;;9.01;75.26;99056.31;1704250;84;20975;-78
2021/11/22 03:26:17;;;;;;;9.45;7.72;;;;;;;8.94;75.40;99071.26;1701093;83;21492;-80
2021/11/22 03:28:44;;;;;;;7.58;6.83;;;;;;;8.91;75.59;99070.97;1673246;84;21046;-77
2021/11/22 03:31:10;;;;;;;10.05;6.85;;;;;;;8.88;75.73;99077.63;1700208;83;21005;-82
2021/11/22 03:33:37;;;;;;;7.83;7.00;;;;;;;8.85;75.78;99083.52;1699408;84;21149;-81
2021/11/22 03:36:05;;;;;;;8.73;7.60;;;;;;;8.81;75.82;99081.59;1699009;84;21151;-82
2021/11/22 03:38:32;;;;;;;7.67;6.92;;;;;;;8.75;75.93;99081.53;1702411;83;21038;-79
2021/11/22 03:41:01;;;;;;;8.13;6.67;;;;;;;8.71;75.95;99086.31;1702047;83;21524;-80
2021/11/22 03:43:46;;;;;;;7.75;6.53;;;;;;;8.66;76.08;99084.92;1698849;84;21063;-80
2021/11/22 03:46:03;;;;;;;6.92;6.22;;;;;;;8.62;76.18;99090.52;1696309;84;21310;-83
2021/11/22 03:48:30;;;;;;;8.20;6.85;;;;;;;8.57;76.28;99093.95;1700289;83;21572;-84
2021/11/22 03:50:57;;;;;;;8.98;7.03;;;;;;;8.55;76.41;99098.73;1700236;83;21528;-79
2021/11/22 03:53:23;;;;;;;7.70;6.62;;;;;;;8.54;76.43;99100.32;1699695;84;21098;-78
2021/11/22 03:55:50;;;;;;;7.65;6.85;;;;;;;8.50;76.54;99106.72;1713695;83;21507;-79
2021/11/22 03:58:16;;;;;;;8.10;6.83;;;;;;;8.48;76.62;99102.68;1727531;82;20987;-77
2021/11/22 04:00:43;;;;;;;8.20;7.33;;;;;;;8.46;76.68;99108.28;1729490;82;21034;-78
2021/11/22 04:03:09;;;;;;;10.30;6.97;;;;;;;8.41;76.79;99108.22;1702693;83;21548;-79
2021/11/22 04:05:36;;;;;;;8.90;5.83;;;;;;;8.37;77.03;99111.13;1719159;82;21018;-79
2021/11/22 04:08:04;;;;;;;7.40;5.15;;;;;;;8.34;77.14;99112.16;1677253;84;20999;-80
2021/11/22 04:10:31;;;;;;;6.15;5.55;;;;;;;8.31;77.22;99120.15;1674615;84;22169;-78
2021/11/22 04:12:58;;;;;;;6.95;6.20;;;;;;;8.28;77.28;99126.80;1673764;84;21076;-80
2021/11/22 04:15:24;;;;;;;6.42;5.60;;;;;;;8.26;77.28;99136.12;1679185;83;21090;-81
2021/11/22 04:17:51;;;;;;;8.65;6.40;;;;;;;8.24;77.29;99136.39;1726190;82;21116;-80
2021/11/22 04:20:17;;;;;;;7.47;6.50;;;;;;;8.21;77.37;99136.06;1669532;85;21549;-79
2021/11/22 04:22:43;;;;;;;7.03;5.90;;;;;;;8.14;77.51;99133.58;1689356;83;21201;-78
2021/11/22 04:25:10;;;;;;;7.85;6.00;;;;;;;8.12;77.73;99139.70;1706735;83;21596;-78
2021/11/22 04:27:37;;;;;;;7.25;6.33;;;;;;;8.08;77.88;99141.25;1705689;83;21032;-78
2021/11/22 04:30:07;;;;;;;7.17;6.45;;;;;;;8.04;78.06;99141.47;1714231;83;21039;-79
2021/11/22 04:32:35;;;;;;;6.97;6.28;;;;;;;8.03;78.21;99151.08;1670815;83;21024;-78
2021/11/22 04:35:04;;;;;;;6.90;6.25;;;;;;;8.01;78.31;99151.31;1691484;83;21062;-78
2021/11/22 04:37:32;;;;;;;8.60;6.62;;;;;;;8.01;78.38;99156.67;1695628;83;20975;-80
2021/11/22 04:39:59;;;;;;;7.12;6.00;;;;;;;7.98;78.49;99163.87;1689427;84;21063;-78
2021/11/22 04:42:25;;;;;;;8.23;6.78;;;;;;;7.93;78.53;99160.30;1667202;85;21512;-80
2021/11/22 04:44:52;;;;;;;6.05;5.45;;;;;;;7.89;78.64;99182.22;1668234;85;21064;-79
2021/11/22 04:47:20;;;;;;;6.22;5.30;;;;;;;7.87;78.73;99179.48;1687915;85;21218;-79
2021/11/22 04:49:49;;;;;;;5.37;4.60;;;;;;;7.87;78.82;99179.48;1688208;83;20943;-85
2021/11/22 04:52:16;;;;;;;7.67;5.70;;;;;;;7.84;78.85;99179.98;1666221;85;20995;-86
2021/11/22 04:54:42;;;;;;;5.65;5.05;;;;;;;7.84;78.90;99184.00;1715150;83;21035;-86
2021/11/22 04:57:09;;;;;;;6.17;5.60;;;;;;;7.85;78.87;99190.98;1673072;84;21023;-84
2021/11/22 04:59:36;;;;;;;6.35;4.83;;;;;;;7.85;78.81;99195.00;1687864;85;21041;-83
2021/11/22 05:02:04;;;;;;;6.83;4.62;;;;;;;7.81;78.78;99198.70;1665794;85;20951;-85
2021/11/22 05:04:32;;;;;;;6.25;4.97;;;;;;;7.78;78.83;99213.08;1666272;85;21067;-83
2021/11/22 05:06:58;;;;;;;9.68;4.33;;;;;;;7.76;78.92;99217.88;1689364;83;20983;-82
2021/11/22 05:09:25;;;;;;;6.17;5.33;;;;;;;7.75;78.97;99206.89;1690736;83;21604;-82
2021/11/22 05:11:52;;;;;;;6.35;4.97;;;;;;;7.74;78.96;99215.96;1694254;83;21021;-82
2021/11/22 05:14:18;;;;;;;5.22;4.72;;;;;;;7.72;79.04;99220.21;1694923;83;20980;-81
2021/11/22 05:16:45;;;;;;;5.72;5.12;;;;;;;7.71;79.08;99224.48;1699511;83;21020;-89
2021/11/22 05:19:15;;;;;;;5.17;4.30;;;;;;;7.68;79.09;99231.13;1690090;84;21050;-83
2021/11/22 05:21:41;;;;;;;5.90;4.95;;;;;;;7.68;79.17;99232.98;1648183;86;21564;-84
2021/11/22 05:24:08;;;;;;;4.67;4.28;;;;;;;7.67;79.18;99242.91;1650663;85;21736;-82
2021/11/22 05:26:34;;;;;;;6.53;4.22;;;;;;;7.68;79.23;99243.69;1681651;84;20995;-82
2021/11/22 05:29:03;;;;;;;5.50;4.58;;;;;;;7.69;79.27;99250.15;1684433;84;21022;-81
2021/11/22 05:31:29;;;;;;;5.30;4.67;;;;;;;7.70;79.23;99257.66;1671848;84;21007;-81
2021/11/22 05:33:56;;;;;;;6.47;4.97;;;;;;;7.71;79.20;99260.63;1695686;84;20924;-88
2021/11/22 05:36:22;;;;;;;4.47;3.87;;;;;;;7.71;79.15;99268.66;1671887;85;21348;-87
2021/11/22 05:38:49;;;;;;;4.80;4.40;;;;;;;7.70;79.10;99275.87;1684642;84;21093;-88
2021/11/22 05:41:15;;;;;;;6.53;3.92;;;;;;;7.66;79.05;99273.39;1684562;84;20978;-84
2021/11/22 05:43:42;;;;;;;7.50;4.03;;;;;;;7.61;79.11;99279.98;1670647;85;21579;-86
2021/11/22 05:46:10;;;;;;;6.67;4.33;;;;;;;7.61;79.12;99281.33;1668647;85;20927;-79
2021/11/22 05:48:37;;;;;;;4.78;4.12;;;;;;;7.62;79.03;99288.84;1683663;84;22035;-80
2021/11/22 05:51:06;;;;;;;6.42;4.40;;;;;;;7.63;79.01;99299.80;1675358;82;21038;-92
2021/11/22 05:53:34;;;;;;;4.37;3.75;;;;;;;7.63;78.84;99292.59;1664368;84;21095;-82
2021/11/22 05:56:03;;;;;;;6.80;3.87;;;;;;;7.65;78.84;99297.19;1674624;85;21110;-85
2021/11/22 05:58:31;;;;;;;8.60;4.08;;;;;;;7.64;78.67;99298.76;1640964;87;21148;-86
2021/11/22 06:01:04;;;;;;;4.97;4.47;;;;;;;7.62;78.69;99299.54;1662783;85;21515;-88
2021/11/22 06:03:31;;;;;;;5.42;3.55;;;;;;;7.61;78.71;99304.59;1680291;83;20979;-88
2021/11/22 06:05:58;;;;;;;6.12;5.33;;;;;;;7.60;78.73;99314.48;1719685;83;21032;-90
2021/11/22 06:08:25;;;;;;;6.58;5.12;;;;;;;7.59;78.76;99312.04;1722353;82;21032;-90
2021/11/22 06:10:51;;;;;;;6.15;4.65;;;;;;;7.62;78.78;99319.61;1666370;84;21119;-85
2021/11/22 06:13:18;;;;;;;7.05;5.80;;;;;;;7.62;78.55;99324.44;1704177;83;21075;-75
2021/11/22 06:15:47;;;;;;;5.30;4.60;;;;;;;7.63;78.54;99327.90;1702459;84;20991;-84
2021/11/22 06:18:16;;;;;;;6.87;5.45;;;;;;;7.67;78.28;99324.54;1706317;83;21600;-86
2021/11/22 06:20:42;;;;;;;18.48;12.37;;;;;;;7.72;77.92;99333.97;1729026;82;21105;-76
2021/11/22 06:23:09;;;;;;;9.70;6.25;;;;;;;7.66;75.53;99339.48;1730761;82;21049;-76
2021/11/22 06:25:35;;;;;;;7.75;5.22;;;;;;;7.59;74.67;99333.45;1732180;82;21191;-79
2021/11/22 06:28:03;;;;;;;3.92;3.37;;;;;;;7.57;74.52;99343.59;1714615;82;20983;-78
2021/11/22 06:30:31;;;;;;;5.65;3.83;;;;;;;7.55;74.09;99349.18;1697360;83;20986;-81
2021/11/22 06:32:57;;;;;;;3.95;3.15;;;;;;;7.52;73.57;99348.85;1704477;83;21113;-78
2021/11/22 06:35:24;;;;;;;3.87;3.20;;;;;;;7.52;73.53;99348.33;1732304;82;20989;-81
2021/11/22 06:37:53;;;;;;;5.97;4.60;;;;;;;7.46;73.02;99350.61;1726509;82;21750;-77
2021/11/22 06:40:20;;;;;;;4.30;3.45;;;;;;;7.47;73.14;99362.95;1677596;84;21372;-78
2021/11/22 06:42:47;;;;;;;3.95;2.90;;;;;;;7.44;72.44;99354.03;1694041;84;20972;-78
2021/11/22 06:45:14;;;;;;;3.92;3.47;;;;;;;7.43;72.40;99361.80;1671571;83;21062;-79
2021/11/22 06:47:42;;;;;;;3.60;2.92;;;;;;;7.48;72.75;99363.23;1710674;82;21603;-80
2021/11/22 06:50:09;;;;;;;3.50;1.90;;;;;;;7.47;71.97;99367.48;1701388;84;21387;-81
2021/11/22 06:52:36;;;;;;;3.25;2.20;;;;;;;7.44;71.80;99374.10;1699301;84;20930;-79
2021/11/22 06:55:05;;;;;;;3.22;2.30;;;;;;;7.42;71.82;99381.57;1696336;83;21630;-79
2021/11/22 06:57:32;;;;;;;2.33;1.87;;;;;;;7.37;71.60;99381.47;1708384;82;20908;-81
2021/11/22 06:59:59;;;;;;;2.35;1.60;;;;;;;7.37;71.82;99374.25;1698739;84;20991;-80
2021/11/22 07:02:25;;;;;;;2.58;1.20;;;;;;;7.37;71.75;99374.25;1676859;83;21066;-78
2021/11/22 07:04:52;;;;;;;1.35;1.25;;;;;;;7.36;71.66;99388.67;1704474;83;20965;-77
2021/11/22 07:07:18;;;;;;;6.40;4.20;;;;;;;7.34;71.67;99384.07;1700987;84;20963;-81
2021/11/22 07:09:46;;;;;;;5.05;3.58;;;;;;;7.16;71.87;99384.23;1699908;84;21030;-79
2021/11/22 07:12:12;;;;;;;2.77;2.20;;;;;;;7.14;72.09;99385.53;1699138;84;21062;-81
2021/11/22 07:14:41;;;;;;;2.35;2.12;;;;;;;7.15;72.25;99395.15;1701695;83;21194;-79
2021/11/22 07:17:08;;;;;;;2.92;1.60;;;;;;;7.16;72.35;99394.11;1719872;83;21548;-79
2021/11/22 07:19:35;;;;;;;2.15;1.30;;;;;;;7.15;72.42;99397.83;1706094;83;20964;-84
2021/11/22 07:22:06;;;;;;;3.98;1.50;;;;;;;7.19;72.49;99407.84;1708323;83;21019;-82
2021/11/22 07:24:31;;;;;;;2.02;1.75;;;;;;;7.26;72.43;99409.05;1706663;83;21552;-85
2021/11/22 07:26:57;;;;;;;1.72;1.30;;;;;;;7.30;72.04;99418.22;1730718;83;21263;-87
2021/11/22 07:29:23;;;;;;;1.87;1.67;;;;;;;7.25;72.01;99415.43;1691769;84;21038;-85
2021/11/22 07:31:50;;;;;;;1.55;1.45;;;;;;;7.25;72.10;99417.58;1708520;83;21507;-80
2021/11/22 07:34:16;;;;;;;2.90;1.82;;;;;;;7.23;72.09;99429.06;1723743;82;20975;-80
2021/11/22 07:36:43;;;;;;;1.07;1.00;;;;;;;7.23;72.14;99432.25;1679500;83;21090;-78
2021/11/22 07:39:10;;;;;;;2.00;1.30;;;;;;;7.23;72.19;99435.75;1698937;84;21048;-81
2021/11/22 07:41:36;;;;;;;1.77;1.40;;;;;;;7.24;72.25;99436.56;1675539;84;21052;-80
2021/11/22 07:44:03;;;;;;;3.05;1.47;;;;;;;7.27;72.33;99442.77;1707471;83;21049;-77
2021/11/22 07:46:29;;;;;;;1.50;1.20;;;;;;;7.31;72.18;99446.08;1729779;83;20952;-81
2021/11/22 07:48:56;;;;;;;5.60;1.30;;;;;;;7.37;72.10;99452.36;1687625;83;21074;-78
2021/11/22 07:51:23;;;;;;;1.72;1.62;;;;;;;7.36;71.75;99453.40;1699168;84;21527;-83
2021/11/22 07:53:49;;;;;;;1.30;1.20;;;;;;;7.39;71.83;99463.62;1687163;83;20923;-79
2021/11/22 07:56:16;;;;;;;5.58;1.40;;;;;;;7.40;71.45;99460.72;1724820;82;21015;-81
2021/11/22 07:58:42;;;;;;;1.80;1.70;;;;;;;7.37;70.03;99451.02;1678628;83;21106;-80
2021/11/22 08:01:09;;;;;;;1.47;1.32;;;;;;;7.31;69.71;99451.43;1702476;83;21121;-85
2021/11/22 08:03:35;;;;;;;0.85;0.85;;;;;;;7.28;69.85;99453.77;1698654;83;21165;-79
2021/11/22 08:06:02;;;;;;;1.40;1.30;;;;;;;7.25;69.72;99463.05;1704827;83;21564;-80
2021/11/22 08:08:31;;;;;;;3.98;1.67;;;;;;;7.20;69.63;99466.95;1729896;83;21043;-84
2021/11/22 08:13:35;;;;;;;2.25;1.32;;;;;;;7.11;69.98;99471.03;1630747;87;21109;-83
2021/11/22 08:16:04;;;;;;;1.70;1.60;;;;;;;7.10;69.50;99484.66;1679766;83;21172;-84
2021/11/22 08:18:30;;;;;;;1.62;1.47;;;;;;;7.03;68.96;99482.08;1669159;85;20998;-84
2021/11/22 08:20:57;;;;;;;1.35;1.22;;;;;;;7.06;69.10;99488.29;1629555;86;21050;-83
2021/11/22 08:23:23;;;;;;;3.65;2.22;;;;;;;7.03;68.86;99489.28;1632255;86;21808;-77
2021/11/22 08:25:50;;;;;;;2.02;1.50;;;;;;;7.03;69.07;99499.46;1648083;85;21542;-78
2021/11/22 08:28:18;;;;;;;1.95;1.75;;;;;;;6.99;68.86;99510.33;1665230;85;21123;-78
2021/11/22 08:30:45;;;;;;;3.85;2.70;;;;;;;7.00;69.00;99505.28;1654924;85;21169;-81
2021/11/22 08:33:15;;;;;;;4.08;2.67;;;;;;;7.03;68.84;99500.80;1631772;86;21022;-76
2021/11/22 08:35:43;;;;;;;5.85;2.00;;;;;;;7.07;68.76;99509.98;1633008;86;21163;-76
2021/11/22 08:38:09;;;;;;;1.92;1.80;;;;;;;7.07;68.54;99513.17;1652096;85;21039;-77
2021/11/22 08:40:40;;;;;;;2.92;2.10;;;;;;;7.04;68.29;99518.99;1648042;86;21718;-81
2021/11/22 08:43:04;;;;;;;2.52;1.50;;;;;;;7.03;68.33;99519.52;1678116;85;20970;-77
2021/11/22 08:45:32;;;;;;;1.20;1.10;;;;;;;7.00;68.25;99520.77;1680329;84;21112;-81
2021/11/22 08:48:01;;;;;;;1.57;1.47;;;;;;;6.98;68.27;99512.70;1666669;85;21030;-79
2021/11/22 08:50:27;;;;;;;1.60;1.40;;;;;;;6.98;68.50;99508.17;1669447;85;21033;-89
2021/11/22 08:52:54;;;;;;;3.02;1.20;;;;;;;7.01;68.44;99517.06;1652612;85;21116;-86
2021/11/22 08:55:21;;;;;;;8.15;2.40;;;;;;;7.05;68.43;99525.98;1637632;87;21030;-87
2021/11/22 08:57:48;;;;;;;10.40;3.02;;;;;;;7.06;68.42;99534.27;1642077;85;21080;-87
2021/11/22 09:00:25;;;;;;;2.22;1.80;;;;;;;7.06;68.16;99536.94;1668469;85;21018;-89
2021/11/22 09:02:53;;;;;;;2.27;1.77;;;;;;;7.04;67.90;99531.03;1622915;87;21593;-81
2021/11/22 09:05:20;;;;;;;1.32;1.20;;;;;;;7.02;68.11;99535.26;1671276;84;21657;-82
2021/11/22 09:07:46;;;;;;;1.60;1.50;;;;;;;7.05;68.21;99544.14;1670389;84;21057;-83
2021/11/22 09:10:13;;;;;;;2.55;1.20;;;;;;;7.03;68.12;99530.20;1625405;86;21118;-85
2021/11/22 09:12:41;;;;;;;3.60;1.80;;;;;;;7.04;68.21;99532.36;1651604;85;21082;-86
2021/11/22 09:15:08;;;;;;;1.25;1.10;;;;;;;7.05;68.38;99541.47;1659924;84;21075;-81
2021/11/22 09:17:34;;;;;;;4.65;1.40;;;;;;;7.07;68.29;99535.38;1696937;84;22242;-81
2021/11/22 09:20:01;;;;;;;2.62;1.05;;;;;;;7.09;67.99;99539.17;1684394;84;21019;-80
2021/11/22 09:22:33;;;;;;;1.82;1.72;;;;;;;7.09;68.01;99535.98;1668920;86;20988;-80
2021/11/22 09:25:01;;;;;;;1.20;1.20;;;;;;;7.13;68.08;99536.33;1661531;85;21098;-81
2021/11/22 09:27:27;;;;;;;3.83;3.02;;;;;;;7.17;68.01;99537.48;1676203;84;21595;-78
2021/11/22 09:29:53;;;;;;;2.52;1.85;;;;;;;7.20;67.64;99547.19;1692008;84;21023;-83
2021/11/22 09:32:20;;;;;;;1.37;1.15;;;;;;;7.22;67.06;99545.63;1706515;83;21025;-82
2021/11/22 09:34:46;;;;;;;1.07;1.05;;;;;;;7.30;66.76;99537.25;1760457;80;21052;-79
2021/11/22 09:37:13;;;;;;;4.03;1.65;;;;;;;7.38;66.40;99535.59;1761139;81;21031;-91
2021/11/22 09:39:39;;;;;;;1.72;1.30;;;;;;;7.44;66.06;99538.13;1750842;81;21012;-89
2021/11/22 09:42:06;;;;;;;1.00;0.90;;;;;;;7.48;65.62;99537.16;1750620;81;21058;-83
2021/11/22 09:44:34;;;;;;;0.93;0.93;;;;;;;7.47;65.16;99541.40;1749222;81;21100;-82
2021/11/22 09:47:00;;;;;;;2.35;1.45;;;;;;;7.45;65.11;99542.95;1749595;80;21064;-81
2021/11/22 09:49:26;;;;;;;2.50;1.27;;;;;;;7.48;65.32;99542.52;1725643;82;21575;-84
2021/11/22 09:51:53;;;;;;;3.52;1.62;;;;;;;7.54;65.25;99546.09;1709894;81;21067;-84
2021/11/22 09:54:20;;;;;;;6.08;1.75;;;;;;;7.57;65.10;99545.64;1749062;81;21148;-82
2021/11/22 09:56:49;;;;;;;4.10;1.40;;;;;;;7.57;64.96;99548.32;1749100;81;21557;-84
2021/11/22 09:59:15;;;;;;;2.72;2.45;;;;;;;7.56;64.84;99555.53;1748922;81;21047;-85
2021/11/22 10:01:42;;;;;;;3.80;2.05;;;;;;;7.55;64.89;99557.09;1738574;82;21066;-79
2021/11/22 10:04:18;;;;;;;6.95;2.37;;;;;;;7.54;64.86;99560.29;1700487;82;21016;-82
2021/11/22 10:06:57;;;;;;;3.60;3.08;;;;;;;7.52;64.87;99554.89;1745514;82;21090;-81
2021/11/22 10:09:37;;;;;;;6.75;4.67;;;;;;;7.48;65.09;99549.20;1747644;81;21137;-82
2021/11/22 10:12:14;;;;;;;5.10;4.25;;;;;;;7.47;65.28;99544.89;1748630;81;21310;-81
2021/11/22 10:14:53;;;;;;;2.87;2.47;;;;;;;7.47;65.42;99554.26;1746943;81;21026;-84
2021/11/22 10:17:36;;;;;;;1.50;1.40;;;;;;;7.47;65.61;99553.44;1754139;80;20962;-83
2021/11/22 10:20:14;;;;;;;1.40;1.30;;;;;;;7.49;65.70;99542.78;1752921;80;21135;-80
2021/11/22 10:22:49;;;;;;;1.35;1.25;;;;;;;7.51;65.75;99553.26;1755237;80;20984;-85
2021/11/22 10:25:30;;;;;;;2.00;1.32;;;;;;;7.51;65.84;99559.42;1761319;80;21025;-84
2021/11/22 10:28:18;;;;;;;2.10;1.22;;;;;;;7.50;65.62;99547.09;1727887;80;21049;-87
2021/11/22 10:30:58;;;;;;;1.60;1.50;;;;;;;7.50;65.88;99541.73;1761894;80;21723;-79
2021/11/22 10:33:30;;;;;;;1.60;1.50;;;;;;;7.48;65.75;99549.72;1777903;80;21841;-85
2021/11/22 10:35:59;;;;;;;1.40;1.30;;;;;;;7.45;65.69;99556.34;1748451;80;21036;-91
2021/11/22 10:38:31;;;;;;;1.70;1.60;;;;;;;7.41;65.62;99548.48;1728156;81;21061;-83
2021/11/22 10:41:02;;;;;;;4.03;1.60;;;;;;;7.41;65.63;99551.17;1746426;81;21091;-83
2021/11/22 10:43:38;;;;;;;1.60;1.50;;;;;;;7.42;65.42;99558.16;1753625;80;21667;-79
2021/11/22 10:46:07;;;;;;;1.60;1.50;;;;;;;7.39;65.26;99555.40;1735788;81;21177;-81
2021/11/22 10:48:35;;;;;;;2.12;1.35;;;;;;;7.41;65.04;99545.30;1724107;81;20937;-80
2021/11/22 10:51:16;;;;;;;3.33;1.62;;;;;;;7.38;64.82;99549.78;1755401;80;21021;-81
2021/11/22 10:53:55;;;;;;;2.55;1.32;;;;;;;7.33;64.96;99548.84;1743505;82;21604;-86
2021/11/22 10:56:27;;;;;;;7.37;1.95;;;;;;;7.27;65.24;99546.57;1748166;82;21060;-83
2021/11/22 10:59:06;;;;;;;3.72;2.60;;;;;;;7.26;65.32;99551.63;1752712;81;21108;-87
2021/11/22 11:01:38;;;;;;;3.33;2.60;;;;;;;7.32;65.28;99557.39;1761485;80;20957;-86
2021/11/22 11:04:09;;;;;;;6.75;3.80;;;;;;;7.38;65.00;99562.34;1760009;81;21047;-79
2021/11/22 11:06:42;;;;;;;3.10;2.47;;;;;;;7.40;64.16;99557.03;1719750;81;21065;-77
2021/11/22 11:09:20;;;;;;;3.12;2.35;;;;;;;7.41;64.30;99566.70;1713256;80;21162;-87
2021/11/22 11:11:48;;;;;;;1.35;1.25;;;;;;;7.45;64.15;99560.35;1728061;80;21180;-87
2021/11/22 11:14:16;;;;;;;3.35;1.72;;;;;;;7.42;63.85;99566.18;1704986;82;20969;-88
2021/11/22 11:16:44;;;;;;;2.45;1.60;;;;;;;7.43;63.82;99567.81;1698453;80;21565;-86
2021/11/22 11:19:14;;;;;;;4.60;2.10;;;;;;;7.47;63.95;99561.47;1713674;81;20937;-89
2021/11/22 11:21:48;;;;;;;1.80;1.67;;;;;;;7.46;63.84;99564.66;1729836;82;21237;-86
2021/11/22 11:24:16;;;;;;;2.05;1.55;;;;;;;7.41;64.12;99561.34;1712833;82;21053;-85
2021/11/22 11:26:44;;;;;;;1.62;1.52;;;;;;;7.43;64.14;99571.28;1729791;80;21577;-83
2021/11/22 11:29:11;;;;;;;1.50;1.40;;;;;;;7.43;64.06;99576.63;1719435;82;21052;-80
2021/11/22 11:31:39;;;;;;;12.13;4.55;;;;;;;7.46;63.91;99582.05;1736656;80;21502;-84
2021/11/22 11:34:10;;;;;;;3.75;1.98;;;;;;;7.39;63.83;99571.97;1705748;82;21064;-87
2021/11/22 11:37:15;;;;;;;2.10;1.42;;;;;;;7.37;63.94;99569.55;1718365;82;21098;-85
2021/11/22 11:40:15;;;;;;;1.32;1.22;;;;;;;7.34;63.73;99571.33;1728809;81;21100;-79
2021/11/22 11:43:30;;;;;;;4.50;1.75;;;;;;;7.25;63.87;99571.91;1709611;82;21033;-80
2021/11/22 11:46:21;;;;;;;2.37;2.20;;;;;;;7.25;64.17;99578.59;1671126;82;39233;-75
2021/11/22 11:49:08;;;;;;;5.65;2.50;;;;;;;7.27;64.18;99582.68;1662060;81;21075;-89
2021/11/22 11:51:41;;;;;;;3.17;2.87;;;;;;;7.27;64.23;99584.02;1719882;82;21083;-80